Latest Weather Observations for Wyndham Airport

IDD60801

Issued at 9:01 pm CST Saturday 1 August 2015 (issued every 30 minutes, with the page automatically refreshed every 10 minutes)

About weather observations | Map of weather stations | Latest weather observations for NT | Other Formats
Station Details ID: 001006 Name: WYNDHAM AERO Lat: -15.51 Lon: 128.15 Height: 3.8 m
Data from the previous 72 hours. | See also: Recent months for locations in Northern Territory
Date/Time
CST
Temp
°C
App
Temp
°C
Dew
Point
Rel
Hum
%
Delta-T
°C
Wind Press
QNH
hPa
Press
MSL
hPa
Rain
since 9 am
mm
Dir
 
Spd
km/h
Gust
km/h
Spd
kts
Gust
kts
01/09:00pm 25.8 25.6 9.2 35 9.1 CALM 0 0 0 0 1014.4 1014.4 0.0
01/08:30pm 27.2 26.1 10.0 34 9.6 SE 6 11 3 6 1013.9 1013.9 0.0
01/08:00pm 28.1 25.9 10.8 34 9.8 NNE 13 19 7 10 1013.4 1013.4 0.0
01/07:30pm 28.5 25.9 10.7 33 10.1 N 15 19 8 10 1012.8 1012.8 0.0
01/07:00pm 29.1 26.6 11.2 33 10.3 N 15 20 8 11 1012.6 1012.6 0.0
01/06:30pm 30.3 26.5 9.8 28 11.6 N 20 26 11 14 1012.3 1012.3 0.0
01/06:00pm 32.5 29.6 8.0 22 13.6 ESE 13 28 7 15 1012.1 1012.1 0.0
01/05:30pm 33.6 29.9 4.3 16 15.4 ESE 13 20 7 11 1012.0 1012.0 0.0
01/05:00pm 33.8 30.5 4.5 16 15.4 NNE 11 17 6 9 1012.2 1012.2 0.0
01/04:30pm 34.1 30.4 4.7 16 15.6 E 13 22 7 12 1012.1 1012.1 0.0
01/04:00pm 33.9 31.4 4.6 16 15.5 ENE 7 19 4 10 1012.2 1012.2 0.0
01/03:30pm 33.8 29.9 5.4 17 15.2 E 15 28 8 15 1012.4 1012.4 0.0
01/03:00pm 34.4 30.2 5.8 17 15.4 E 17 30 9 16 1012.8 1012.8 0.0
01/02:30pm 33.9 31.5 7.0 19 14.8 ESE 9 24 5 13 1013.3 1013.3 0.0
01/02:00pm 33.7 30.0 6.1 18 14.9 E 15 24 8 13 1013.7 1013.7 0.0
01/01:30pm 33.3 29.3 6.6 19 14.5 E 17 26 9 14 1014.3 1014.3 0.0
01/01:00pm 33.2 28.9 7.2 20 14.3 SSE 19 26 10 14 1014.7 1014.7 0.0
01/12:30pm 32.8 29.8 7.6 21 13.9 ESE 13 24 7 13 1015.4 1015.4 0.0
01/12:00pm 31.6 28.7 2.7 16 14.6 S 7 13 4 7 1015.9 1015.9 0.0
01/11:30am 30.0 27.3 3.9 19 13.3 SW 7 11 4 6 1016.4 1016.4 0.0
01/11:00am 28.4 25.9 4.0 21 12.3 SSW 6 9 3 5 1016.7 1016.7 0.0
01/10:30am 27.0 24.6 5.3 25 11.1 WSW 7 11 4 6 1016.9 1016.9 0.0
01/10:00am 25.1 21.9 5.3 28 10.0 SW 11 13 6 7 1017.1 1017.1 0.0
01/09:30am 23.9 20.4 5.3 30 9.3 SSW 13 17 7 9 1016.9 1016.9 0.0
01/09:00am 22.9 19.4 5.3 32 8.8 SSW 13 17 7 9 1016.5 1016.5 0.0
01/08:30am 20.8 18.7 6.7 40 7.1 WSW 7 9 4 5 1016.2 1016.2 0.0
01/08:00am 19.4 17.0 7.2 45 6.2 W 9 11 5 6 1015.7 1015.7 0.0
01/07:30am 18.4 16.5 6.6 46 5.9 W 6 9 3 5 1015.4 1015.4 0.0
01/07:00am 18.3 16.3 6.2 45 6.0 W 6 7 3 4 1015.2 1015.2 0.0
01/06:30am 18.9 17.0 6.7 45 6.1 WNW 6 7 3 4 1015.0 1015.0 0.0
01/06:00am 19.2 17.8 7.3 46 6.0 WSW 4 7 2 4 1014.7 1014.7 0.0
01/05:30am 18.9 17.8 7.0 46 6.0 W 2 6 1 3 1014.5 1014.5 0.0
01/05:00am 18.7 17.0 7.5 48 5.7 WNW 6 7 3 4 1014.4 1014.4 0.0
01/04:30am 19.4 18.1 7.5 46 6.1 NNW 4 7 2 4 1014.3 1014.3 0.0
01/04:00am 18.1 16.2 6.6 47 5.7 WNW 6 7 3 4 1014.4 1014.4 0.0
01/03:30am 18.4 16.4 7.2 48 5.6 NW 7 9 4 5 1014.4 1014.4 0.0
01/03:00am 18.0 16.3 8.3 53 5.0 NNW 7 9 4 5 1014.5 1014.5 0.0
01/02:30am 19.3 17.8 8.3 49 5.7 NNW 6 7 3 4 1014.6 1014.6 0.0
01/02:00am 17.9 17.4 7.9 52 5.1 CALM 0 0 0 0 1014.7 1014.7 0.0
01/01:30am 17.7 15.4 4.6 42 6.2 SW 6 9 3 5 1014.6 1014.6 0.0
01/01:00am 18.7 17.9 6.5 45 6.1 CALM 0 0 0 0 1014.8 1014.8 0.0
01/12:30am 20.0 19.6 8.4 47 6.0 CALM 0 0 0 0 1014.8 1014.8 0.0
01/12:00am 20.7 20.6 9.6 49 5.9 CALM 0 0 0 0 1014.8 1014.8 0.0
 
Date/Time
CST
Temp
°C
App
Temp
°C
Dew
Point
Rel
Hum
%
Delta-T
°C
Wind Press
QNH
hPa
Press
MSL
hPa
Rain
since 9 am
mm
Dir
 
Spd
km/h
Gust
km/h
Spd
kts
Gust
kts
31/11:30pm 19.7 18.7 5.7 40 6.9 CALM 0 0 0 0 1014.8 1014.8 0.0
31/11:00pm 21.2 20.6 7.4 41 7.1 CALM 0 0 0 0 1014.8 1014.8 0.0
31/10:30pm 21.0 20.0 5.8 37 7.6 CALM 0 0 0 0 1014.9 1014.9 0.0
31/10:00pm 23.2 22.7 7.7 37 8.1 CALM 0 0 0 0 1014.7 1014.7 0.0
31/09:30pm 22.5 19.6 6.7 36 8.1 S 11 13 6 7 1014.7 1014.7 0.0
31/09:00pm 23.7 21.6 6.0 32 9.0 SW 6 7 3 4 1014.3 1014.3 0.0
31/08:30pm 24.5 22.3 6.3 31 9.4 SE 7 9 4 5 1013.8 1013.8 0.0
31/08:00pm 26.5 23.3 7.0 29 10.3 N 13 15 7 8 1013.4 1013.4 0.0
31/07:30pm 27.4 24.4 7.8 29 10.5 N 13 17 7 9 1013.0 1013.0 0.0
31/07:00pm 28.4 25.8 7.6 27 11.2 N 11 17 6 9 1012.7 1012.7 0.0
31/06:30pm 30.1 26.9 6.7 23 12.5 NNW 13 17 7 9 1012.4 1012.4 0.0
31/06:00pm 31.6 28.5 3.6 17 14.4 SE 9 15 5 8 1012.2 1012.2 0.0
31/05:30pm 32.0 27.8 3.9 17 14.5 ESE 15 20 8 11 1012.0 1012.0 0.0
31/05:00pm 32.8 28.6 3.7 16 15.1 E 15 26 8 14 1012.0 1012.0 0.0
31/04:30pm 32.8 29.7 3.7 16 15.1 E 9 20 5 11 1012.0 1012.0 0.0
31/04:00pm 32.9 28.3 3.8 16 15.1 E 17 24 9 13 1012.3 1012.3 0.0
31/03:30pm 32.9 27.9 3.8 16 15.1 ENE 19 32 10 17 1012.7 1012.7 0.0
31/03:00pm 33.1 29.3 3.9 16 15.2 ESE 13 20 7 11 1013.1 1013.1 0.0
31/02:30pm 32.6 29.5 3.5 16 15.0 E 9 19 5 10 1013.8 1013.8 0.0
31/02:00pm 32.3 28.2 4.2 17 14.6 ENE 15 28 8 15 1014.4 1014.4 0.0
31/01:30pm 32.5 28.0 4.3 17 14.7 E 17 30 9 16 1014.9 1014.9 0.0
31/01:00pm 31.9 26.9 3.8 17 14.5 ESE 19 28 10 15 1015.6 1015.6 0.0
31/12:30pm 31.8 26.5 2.9 16 14.6 E 20 35 11 19 1016.1 1016.1 0.0
31/12:00pm 31.0 24.8 2.3 16 14.3 E 24 37 13 20 1016.6 1016.6 0.0
31/11:30am 30.9 23.9 2.2 16 14.3 ESE 28 37 15 20 1017.1 1017.1 0.0
31/11:00am 29.8 22.7 1.3 16 13.9 ESE 28 39 15 21 1017.5 1017.5 0.0
31/10:30am 29.0 21.9 1.5 17 13.4 ESE 28 37 15 20 1017.8 1017.8 0.0
31/10:00am 28.2 22.7 1.7 18 12.9 E 20 26 11 14 1017.9 1017.9 0.0
31/09:30am 26.2 21.7 2.2 21 11.6 ESE 15 17 8 9 1017.7 1017.7 0.0
31/09:00am 24.1 20.6 3.4 26 10.1 ESE 11 13 6 7 1017.5 1017.5 0.0
31/08:30am 23.5 19.8 4.5 29 9.4 E 13 17 7 9 1017.1 1017.1 0.0
31/08:27am 23.1 19.3 4.1 29 9.3 E 13 17 7 9 1017.0 1017.0 0.0
31/08:00am 18.1 14.4 4.3 40 6.5 E 13 15 7 8 1016.7 1016.7 0.0
31/07:30am 15.0 11.5 3.5 46 5.2 ENE 11 13 6 7 1016.5 1016.5 0.0
31/07:00am 14.0 10.8 3.2 48 4.8 ENE 9 11 5 6 1016.3 1016.3 0.0
31/06:30am 14.7 11.5 3.2 46 5.2 ENE 9 11 5 6 1015.9 1015.9 0.0
31/06:00am 15.3 12.1 3.1 44 5.5 ENE 9 11 5 6 1015.7 1015.7 0.0
31/05:30am 17.9 15.2 3.8 39 6.6 E 7 9 4 5 1015.7 1015.7 0.0
31/05:00am 17.5 14.0 3.4 39 6.5 ESE 11 13 6 7 1015.7 1015.7 0.0
31/04:30am 18.6 15.6 4.0 38 6.9 ESE 9 11 5 6 1015.7 1015.7 0.0
31/04:00am 16.8 13.6 3.1 40 6.3 ESE 9 11 5 6 1015.7 1015.7 0.0
31/03:30am 18.5 15.3 3.2 36 7.1 NE 9 13 5 7 1015.8 1015.8 0.0
31/03:00am 18.6 15.1 3.6 37 7.0 E 11 13 6 7 1015.9 1015.9 0.0
31/02:30am 16.5 13.2 2.2 38 6.4 ESE 9 11 5 6 1016.2 1016.2 0.0
31/02:00am 17.3 14.6 2.5 37 6.7 ENE 6 9 3 5 1016.3 1016.3 0.0
31/01:30am 18.0 15.3 2.7 36 7.0 E 6 7 3 4 1016.6 1016.6 0.0
31/01:00am 19.6 17.0 4.1 36 7.4 ENE 7 7 4 4 1016.7 1016.7 0.0
31/12:30am 20.0 17.2 3.3 33 7.9 E 7 9 4 5 1016.7 1016.7 0.0
31/12:00am 22.5 19.9 4.1 30 9.0 E 7 7 4 4 1016.7 1016.7 0.0
 
Date/Time
CST
Temp
°C
App
Temp
°C
Dew
Point
Rel
Hum
%
Delta-T
°C
Wind Press
QNH
hPa
Press
MSL
hPa
Rain
since 9 am
mm
Dir
 
Spd
km/h
Gust
km/h
Spd
kts
Gust
kts
30/11:30pm 22.4 19.4 4.0 30 8.9 ESE 9 9 5 5 1016.8 1016.8 0.0
30/11:00pm 22.3 19.2 3.4 29 9.1 E 9 11 5 6 1016.9 1016.9 0.0
30/10:30pm 23.7 19.9 4.1 28 9.6 ESE 13 15 7 8 1016.8 1016.8 0.0
30/10:00pm 24.0 21.0 3.9 27 9.9 ESE 9 13 5 7 1016.7 1016.7 0.0
30/09:30pm 24.2 20.7 3.5 26 10.1 E 11 11 6 6 1016.5 1016.5 0.0
30/09:00pm 25.8 22.5 4.3 25 10.8 E 11 13 6 7 1016.3 1016.3 0.0
30/08:30pm 25.5 22.1 4.0 25 10.7 ESE 11 15 6 8 1015.8 1015.8 0.0
30/08:00pm 27.5 22.8 3.2 21 12.1 SE 17 20 9 11 1015.4 1015.4 0.0
30/07:30pm 26.6 23.3 4.4 24 11.2 ESE 11 15 6 8 1015.2 1015.2 0.0
30/07:00pm 28.6 24.1 4.2 21 12.4 SE 17 20 9 11 1014.9 1014.9 0.0
30/06:30pm 30.3 25.8 4.1 19 13.4 SE 17 20 9 11 1014.5 1014.5 0.0
30/06:00pm 31.7 27.6 4.5 18 14.2 SE 15 24 8 13 1014.5 1014.5 0.0
30/05:30pm 32.5 27.6 5.1 18 14.5 ESE 20 28 11 15 1014.2 1014.2 0.0
30/05:00pm 32.6 27.9 5.2 18 14.5 ESE 19 26 10 14 1014.3 1014.3 0.0
30/04:30pm 32.6 27.9 5.2 18 14.5 SE 19 32 10 17 1014.4 1014.4 0.0
30/04:00pm 32.9 28.1 5.5 18 14.6 SE 20 32 11 17 1014.6 1014.6 0.0
30/03:30pm 32.9 28.4 6.2 19 14.4 ESE 19 30 10 16 1014.9 1014.9 0.0
30/03:00pm 32.9 27.8 6.2 19 14.4 E 22 33 12 18 1015.3 1015.3 0.0
30/02:30pm 32.1 27.8 7.0 21 13.6 SE 19 35 10 19 1015.8 1015.8 0.0
30/02:00pm 32.9 28.6 7.0 20 14.1 E 19 37 10 20 1016.4 1016.4 0.0
30/01:30pm 32.6 27.8 7.4 21 13.8 E 22 35 12 19 1017.0 1017.0 0.0
30/01:00pm 31.9 26.8 7.5 22 13.4 E 24 41 13 22 1017.6 1017.6 0.0
30/12:30pm 31.3 26.0 8.3 24 12.7 E 26 37 14 20 1018.1 1018.1 0.0
30/12:00pm 30.7 25.5 9.0 26 12.1 E 26 35 14 19 1018.6 1018.6 0.0
30/11:30am 30.5 25.1 9.4 27 11.8 E 28 35 15 19 1019.0 1019.0 0.0
30/11:00am 29.6 23.8 8.1 26 11.8 ESE 28 37 15 20 1019.4 1019.4 0.0
30/10:30am 29.3 23.4 6.0 23 12.2 E 26 35 14 19 1019.5 1019.5 0.0
30/10:00am 28.6 21.9 5.5 23 12.0 E 30 35 16 19 1019.4 1019.4 0.0
30/09:30am 27.8 22.1 4.8 23 11.7 ESE 24 33 13 18 1019.2 1019.2 0.0
30/09:00am 26.1 21.7 4.6 25 10.8 ESE 17 20 9 11 1019.1 1019.1 0.0
30/08:30am 24.2 20.1 4.6 28 9.7 ESE 15 19 8 10 1018.9 1018.9 0.0
30/08:00am 22.9 18.7 3.9 29 9.3 E 15 19 8 10 1018.5 1018.5 0.0
30/07:30am 21.1 17.4 4.2 33 8.2 E 13 15 7 8 1018.1 1018.1 0.0
30/07:00am 20.8 17.7 3.5 32 8.2 E 9 11 5 6 1017.9 1017.9 0.0
30/06:30am 21.8 18.7 3.5 30 8.8 E 9 15 5 8 1017.6 1017.6 0.0
30/06:00am 22.2 18.8 3.8 30 8.9 E 11 15 6 8 1017.2 1017.2 0.0
30/05:30am 21.1 17.7 3.8 32 8.3 ENE 11 13 6 7 1016.9 1016.9 0.0
30/05:00am 21.0 17.5 3.7 32 8.3 ENE 11 13 6 7 1016.7 1016.7 0.0
30/04:30am 20.4 16.9 3.6 33 8.0 E 11 13 6 7 1016.7 1016.7 0.0
30/04:00am 19.5 16.2 2.4 32 7.9 E 9 11 5 6 1016.8 1016.8 0.0
30/03:30am 20.6 17.1 3.3 32 8.2 ENE 11 13 6 7 1017.0 1017.0 0.0
30/03:00am 20.5 17.4 3.7 33 8.0 E 9 11 5 6 1017.2 1017.2 0.0
30/02:30am 17.8 14.1 2.5 36 7.0 E 11 13 6 7 1017.3 1017.3 0.0
30/02:00am 18.7 15.5 2.9 35 7.3 ENE 9 9 5 5 1017.5 1017.5 0.0
30/01:30am 17.9 14.9 2.2 35 7.1 E 7 9 4 5 1017.6 1017.6 0.0
30/01:00am 18.6 15.5 1.6 32 7.7 ENE 7 9 4 5 1017.7 1017.7 0.0
30/12:30am 18.8 15.4 1.8 32 7.7 ENE 9 11 5 6 1017.7 1017.7 0.0
30/12:00am 20.9 17.2 2.2 29 8.7 E 11 13 6 7 1017.6 1017.6 0.0
 
Date/Time
CST
Temp
°C
App
Temp
°C
Dew
Point
Rel
Hum
%
Delta-T
°C
Wind Press
QNH
hPa
Press
MSL
hPa
Rain
since 9 am
mm
Dir
 
Spd
km/h
Gust
km/h
Spd
kts
Gust
kts
29/11:30pm 21.8 17.9 3.5 30 8.8 E 13 15 7 8 1017.7 1017.7 0.0
29/11:00pm 20.3 16.9 1.7 29 8.5 E 9 11 5 6 1017.7 1017.7 0.0

Other Formats:

Comma delimited format used in spreadsheet applications
http://www.bom.gov.au/fwo/IDD60801/IDD60801.95214.axf

JavaScript Object Notation format (JSON) in row-major order
http://www.bom.gov.au/fwo/IDD60801/IDD60801.95214.json